sensor_id;sensor_type;location;lat;lon;timestamp;P1;durP1;ratioP1;P2;durP2;ratioP2
9042;SDS011;4556;49.150;8.808;2022-08-24T00:01:31;3.73;;;1.90;;
9042;SDS011;4556;49.150;8.808;2022-08-24T00:03:58;4.43;;;1.73;;
9042;SDS011;4556;49.150;8.808;2022-08-24T00:06:25;3.63;;;2.17;;
9042;SDS011;4556;49.150;8.808;2022-08-24T00:08:54;3.20;;;2.00;;
9042;SDS011;4556;49.150;8.808;2022-08-24T00:11:22;2.57;;;1.90;;
9042;SDS011;4556;49.150;8.808;2022-08-24T00:13:50;4.87;;;2.30;;
9042;SDS011;4556;49.150;8.808;2022-08-24T00:16:17;3.20;;;2.10;;
9042;SDS011;4556;49.150;8.808;2022-08-24T00:18:47;3.53;;;2.30;;
9042;SDS011;4556;49.150;8.808;2022-08-24T00:21:15;3.40;;;2.10;;
9042;SDS011;4556;49.150;8.808;2022-08-24T00:23:43;4.73;;;2.30;;
9042;SDS011;4556;49.150;8.808;2022-08-24T00:26:11;5.47;;;2.20;;
9042;SDS011;4556;49.150;8.808;2022-08-24T00:28:38;4.10;;;2.00;;
9042;SDS011;4556;49.150;8.808;2022-08-24T00:31:05;3.50;;;2.17;;
9042;SDS011;4556;49.150;8.808;2022-08-24T00:33:32;2.87;;;2.00;;
9042;SDS011;4556;49.150;8.808;2022-08-24T00:36:01;3.13;;;2.10;;
9042;SDS011;4556;49.150;8.808;2022-08-24T00:38:29;4.10;;;2.20;;
9042;SDS011;4556;49.150;8.808;2022-08-24T00:40:57;4.00;;;2.60;;
9042;SDS011;4556;49.150;8.808;2022-08-24T00:43:24;6.63;;;2.37;;
9042;SDS011;4556;49.150;8.808;2022-08-24T00:45:55;3.80;;;2.27;;
9042;SDS011;4556;49.150;8.808;2022-08-24T00:48:31;3.63;;;2.20;;
9042;SDS011;4556;49.150;8.808;2022-08-24T00:51:05;3.10;;;2.30;;
9042;SDS011;4556;49.150;8.808;2022-08-24T00:53:38;3.53;;;2.50;;
9042;SDS011;4556;49.150;8.808;2022-08-24T00:56:09;3.87;;;2.37;;
9042;SDS011;4556;49.150;8.808;2022-08-24T00:58:39;3.17;;;2.03;;
9042;SDS011;4556;49.150;8.808;2022-08-24T01:01:12;3.27;;;2.03;;
9042;SDS011;4556;49.150;8.808;2022-08-24T01:03:40;2.93;;;2.07;;
9042;SDS011;4556;49.150;8.808;2022-08-24T01:06:10;3.80;;;2.30;;
9042;SDS011;4556;49.150;8.808;2022-08-24T01:08:38;2.63;;;2.07;;
9042;SDS011;4556;49.150;8.808;2022-08-24T01:11:07;7.87;;;2.10;;
9042;SDS011;4556;49.150;8.808;2022-08-24T01:13:37;3.20;;;2.20;;
9042;SDS011;4556;49.150;8.808;2022-08-24T01:16:06;4.17;;;2.40;;
9042;SDS011;4556;49.150;8.808;2022-08-24T01:18:34;4.67;;;1.87;;
9042;SDS011;4556;49.150;8.808;2022-08-24T01:21:19;3.17;;;1.80;;
9042;SDS011;4556;49.150;8.808;2022-08-24T01:23:50;3.50;;;2.20;;
9042;SDS011;4556;49.150;8.808;2022-08-24T01:26:20;3.43;;;2.23;;
9042;SDS011;4556;49.150;8.808;2022-08-24T01:28:51;4.97;;;2.17;;
9042;SDS011;4556;49.150;8.808;2022-08-24T01:31:22;5.07;;;2.13;;
9042;SDS011;4556;49.150;8.808;2022-08-24T01:33:50;4.07;;;2.20;;
9042;SDS011;4556;49.150;8.808;2022-08-24T01:36:20;4.33;;;2.07;;
9042;SDS011;4556;49.150;8.808;2022-08-24T01:38:53;3.03;;;2.00;;
9042;SDS011;4556;49.150;8.808;2022-08-24T01:41:23;3.23;;;1.93;;
9042;SDS011;4556;49.150;8.808;2022-08-24T01:43:50;3.37;;;2.10;;
9042;SDS011;4556;49.150;8.808;2022-08-24T01:46:18;3.00;;;2.10;;
9042;SDS011;4556;49.150;8.808;2022-08-24T01:48:45;6.17;;;2.13;;
9042;SDS011;4556;49.150;8.808;2022-08-24T01:51:13;2.77;;;2.00;;
9042;SDS011;4556;49.150;8.808;2022-08-24T01:53:40;2.80;;;2.00;;
9042;SDS011;4556;49.150;8.808;2022-08-24T01:56:09;5.93;;;2.33;;
9042;SDS011;4556;49.150;8.808;2022-08-24T01:58:41;3.93;;;2.33;;
9042;SDS011;4556;49.150;8.808;2022-08-24T02:01:09;4.03;;;2.00;;
9042;SDS011;4556;49.150;8.808;2022-08-24T02:03:36;3.57;;;1.97;;
9042;SDS011;4556;49.150;8.808;2022-08-24T02:06:03;3.80;;;1.97;;
9042;SDS011;4556;49.150;8.808;2022-08-24T02:08:31;3.07;;;2.10;;
9042;SDS011;4556;49.150;8.808;2022-08-24T02:11:00;5.07;;;1.83;;
9042;SDS011;4556;49.150;8.808;2022-08-24T02:13:29;2.20;;;1.97;;
9042;SDS011;4556;49.150;8.808;2022-08-24T02:15:57;3.50;;;2.07;;
9042;SDS011;4556;49.150;8.808;2022-08-24T02:18:25;5.83;;;2.13;;
9042;SDS011;4556;49.150;8.808;2022-08-24T02:20:52;5.63;;;2.30;;
9042;SDS011;4556;49.150;8.808;2022-08-24T02:23:19;2.77;;;2.03;;
9042;SDS011;4556;49.150;8.808;2022-08-24T02:25:46;5.43;;;2.00;;
9042;SDS011;4556;49.150;8.808;2022-08-24T02:28:15;2.43;;;1.70;;
9042;SDS011;4556;49.150;8.808;2022-08-24T02:30:43;3.17;;;1.83;;
9042;SDS011;4556;49.150;8.808;2022-08-24T02:33:11;2.67;;;1.90;;
9042;SDS011;4556;49.150;8.808;2022-08-24T02:35:38;3.20;;;2.03;;
9042;SDS011;4556;49.150;8.808;2022-08-24T02:38:06;3.30;;;1.90;;
9042;SDS011;4556;49.150;8.808;2022-08-24T02:40:35;4.20;;;2.10;;
9042;SDS011;4556;49.150;8.808;2022-08-24T02:43:03;3.00;;;1.80;;
9042;SDS011;4556;49.150;8.808;2022-08-24T02:45:30;4.27;;;2.10;;
9042;SDS011;4556;49.150;8.808;2022-08-24T02:47:59;3.57;;;1.70;;
9042;SDS011;4556;49.150;8.808;2022-08-24T02:50:26;3.13;;;1.73;;
9042;SDS011;4556;49.150;8.808;2022-08-24T02:52:53;3.50;;;2.17;;
9042;SDS011;4556;49.150;8.808;2022-08-24T02:55:20;4.50;;;2.20;;
9042;SDS011;4556;49.150;8.808;2022-08-24T02:57:48;3.47;;;1.93;;
9042;SDS011;4556;49.150;8.808;2022-08-24T03:00:17;3.53;;;2.20;;
9042;SDS011;4556;49.150;8.808;2022-08-24T03:02:47;2.60;;;1.80;;
9042;SDS011;4556;49.150;8.808;2022-08-24T03:05:17;5.00;;;2.00;;
9042;SDS011;4556;49.150;8.808;2022-08-24T03:07:44;2.13;;;1.73;;
9042;SDS011;4556;49.150;8.808;2022-08-24T03:10:12;2.53;;;1.90;;
9042;SDS011;4556;49.150;8.808;2022-08-24T03:12:39;3.30;;;1.90;;
9042;SDS011;4556;49.150;8.808;2022-08-24T03:15:07;4.00;;;1.67;;
9042;SDS011;4556;49.150;8.808;2022-08-24T03:17:37;4.97;;;1.90;;
9042;SDS011;4556;49.150;8.808;2022-08-24T03:20:06;2.13;;;1.80;;
9042;SDS011;4556;49.150;8.808;2022-08-24T03:22:37;6.87;;;1.90;;
9042;SDS011;4556;49.150;8.808;2022-08-24T03:25:05;2.50;;;1.90;;
9042;SDS011;4556;49.150;8.808;2022-08-24T03:27:33;2.57;;;1.60;;
9042;SDS011;4556;49.150;8.808;2022-08-24T03:30:01;4.00;;;1.97;;
9042;SDS011;4556;49.150;8.808;2022-08-24T03:32:29;3.77;;;1.90;;
9042;SDS011;4556;49.150;8.808;2022-08-24T03:35:00;6.03;;;2.10;;
9042;SDS011;4556;49.150;8.808;2022-08-24T03:37:28;3.50;;;1.90;;
9042;SDS011;4556;49.150;8.808;2022-08-24T03:39:58;2.33;;;2.00;;
9042;SDS011;4556;49.150;8.808;2022-08-24T03:42:25;2.87;;;1.87;;
9042;SDS011;4556;49.150;8.808;2022-08-24T03:44:52;3.67;;;2.13;;
9042;SDS011;4556;49.150;8.808;2022-08-24T03:47:19;4.63;;;2.10;;
9042;SDS011;4556;49.150;8.808;2022-08-24T03:49:47;2.27;;;1.77;;
9042;SDS011;4556;49.150;8.808;2022-08-24T03:52:14;3.27;;;1.80;;
9042;SDS011;4556;49.150;8.808;2022-08-24T03:54:42;4.07;;;2.20;;
9042;SDS011;4556;49.150;8.808;2022-08-24T03:57:11;4.87;;;2.07;;
9042;SDS011;4556;49.150;8.808;2022-08-24T03:59:39;4.50;;;2.23;;
9042;SDS011;4556;49.150;8.808;2022-08-24T04:02:06;4.37;;;1.77;;
9042;SDS011;4556;49.150;8.808;2022-08-24T04:04:33;4.97;;;1.93;;
9042;SDS011;4556;49.150;8.808;2022-08-24T04:07:01;2.17;;;1.70;;
9042;SDS011;4556;49.150;8.808;2022-08-24T04:09:28;4.13;;;1.80;;
9042;SDS011;4556;49.150;8.808;2022-08-24T04:11:55;4.60;;;1.97;;
9042;SDS011;4556;49.150;8.808;2022-08-24T04:14:24;3.63;;;1.67;;
9042;SDS011;4556;49.150;8.808;2022-08-24T04:16:51;4.73;;;2.00;;
9042;SDS011;4556;49.150;8.808;2022-08-24T04:19:18;3.97;;;1.83;;
9042;SDS011;4556;49.150;8.808;2022-08-24T04:21:45;4.10;;;1.73;;
9042;SDS011;4556;49.150;8.808;2022-08-24T04:24:12;3.83;;;2.00;;
9042;SDS011;4556;49.150;8.808;2022-08-24T04:26:40;3.83;;;2.07;;
9042;SDS011;4556;49.150;8.808;2022-08-24T04:29:07;3.83;;;1.60;;
9042;SDS011;4556;49.150;8.808;2022-08-24T04:31:38;2.47;;;1.80;;
9042;SDS011;4556;49.150;8.808;2022-08-24T04:34:06;3.20;;;1.90;;
9042;SDS011;4556;49.150;8.808;2022-08-24T04:36:34;2.30;;;1.90;;
9042;SDS011;4556;49.150;8.808;2022-08-24T04:39:03;3.57;;;1.70;;
9042;SDS011;4556;49.150;8.808;2022-08-24T04:41:30;3.40;;;2.13;;
9042;SDS011;4556;49.150;8.808;2022-08-24T04:43:57;5.03;;;2.03;;
9042;SDS011;4556;49.150;8.808;2022-08-24T04:46:25;3.00;;;1.97;;
9042;SDS011;4556;49.150;8.808;2022-08-24T04:48:54;3.77;;;1.70;;
9042;SDS011;4556;49.150;8.808;2022-08-24T04:51:22;5.10;;;1.60;;
9042;SDS011;4556;49.150;8.808;2022-08-24T04:53:50;5.97;;;1.90;;
9042;SDS011;4556;49.150;8.808;2022-08-24T04:56:18;4.43;;;1.90;;
9042;SDS011;4556;49.150;8.808;2022-08-24T04:58:47;3.67;;;1.60;;
9042;SDS011;4556;49.150;8.808;2022-08-24T05:01:15;2.67;;;1.80;;
9042;SDS011;4556;49.150;8.808;2022-08-24T05:03:45;4.43;;;2.23;;
9042;SDS011;4556;49.150;8.808;2022-08-24T05:06:15;3.70;;;1.77;;
9042;SDS011;4556;49.150;8.808;2022-08-24T05:08:44;3.00;;;1.70;;
9042;SDS011;4556;49.150;8.808;2022-08-24T05:11:11;2.10;;;1.60;;
9042;SDS011;4556;49.150;8.808;2022-08-24T05:13:39;2.80;;;1.73;;
9042;SDS011;4556;49.150;8.808;2022-08-24T05:16:07;2.13;;;1.63;;
9042;SDS011;4556;49.150;8.808;2022-08-24T05:18:35;1.93;;;1.57;;
9042;SDS011;4556;49.150;8.808;2022-08-24T05:21:04;3.67;;;1.60;;
9042;SDS011;4556;49.150;8.808;2022-08-24T05:23:34;2.43;;;1.80;;
9042;SDS011;4556;49.150;8.808;2022-08-24T05:26:02;2.30;;;1.50;;
9042;SDS011;4556;49.150;8.808;2022-08-24T05:28:31;4.43;;;2.00;;
9042;SDS011;4556;49.150;8.808;2022-08-24T05:31:04;6.33;;;1.90;;
9042;SDS011;4556;49.150;8.808;2022-08-24T05:33:33;4.43;;;2.00;;
9042;SDS011;4556;49.150;8.808;2022-08-24T05:36:01;9.13;;;2.03;;
9042;SDS011;4556;49.150;8.808;2022-08-24T05:38:28;7.10;;;1.87;;
9042;SDS011;4556;49.150;8.808;2022-08-24T05:40:57;6.03;;;2.30;;
9042;SDS011;4556;49.150;8.808;2022-08-24T05:43:25;7.80;;;1.87;;
9042;SDS011;4556;49.150;8.808;2022-08-24T05:45:52;10.50;;;2.17;;
9042;SDS011;4556;49.150;8.808;2022-08-24T05:48:19;9.80;;;2.10;;
9042;SDS011;4556;49.150;8.808;2022-08-24T05:50:50;6.53;;;1.80;;
9042;SDS011;4556;49.150;8.808;2022-08-24T05:53:18;13.77;;;2.03;;
9042;SDS011;4556;49.150;8.808;2022-08-24T05:55:45;11.53;;;2.20;;
9042;SDS011;4556;49.150;8.808;2022-08-24T05:58:16;12.63;;;2.50;;
9042;SDS011;4556;49.150;8.808;2022-08-24T06:00:44;8.30;;;2.03;;
9042;SDS011;4556;49.150;8.808;2022-08-24T06:03:13;10.40;;;2.13;;
9042;SDS011;4556;49.150;8.808;2022-08-24T06:05:41;5.13;;;1.77;;
9042;SDS011;4556;49.150;8.808;2022-08-24T06:08:11;7.80;;;1.87;;
9042;SDS011;4556;49.150;8.808;2022-08-24T06:10:39;7.50;;;2.00;;
9042;SDS011;4556;49.150;8.808;2022-08-24T06:13:10;3.87;;;1.43;;
9042;SDS011;4556;49.150;8.808;2022-08-24T06:15:39;4.70;;;1.87;;
9042;SDS011;4556;49.150;8.808;2022-08-24T06:18:07;8.47;;;1.80;;
9042;SDS011;4556;49.150;8.808;2022-08-24T06:20:37;10.03;;;1.97;;
9042;SDS011;4556;49.150;8.808;2022-08-24T06:23:06;5.47;;;2.03;;
9042;SDS011;4556;49.150;8.808;2022-08-24T06:25:37;8.37;;;1.70;;
9042;SDS011;4556;49.150;8.808;2022-08-24T06:28:22;5.30;;;1.60;;
9042;SDS011;4556;49.150;8.808;2022-08-24T06:30:58;7.60;;;1.77;;
9042;SDS011;4556;49.150;8.808;2022-08-24T06:33:26;5.47;;;1.60;;
9042;SDS011;4556;49.150;8.808;2022-08-24T06:35:53;8.03;;;2.07;;
9042;SDS011;4556;49.150;8.808;2022-08-24T06:38:20;7.70;;;1.80;;
9042;SDS011;4556;49.150;8.808;2022-08-24T06:40:47;16.47;;;2.33;;
9042;SDS011;4556;49.150;8.808;2022-08-24T06:43:15;7.07;;;1.90;;
9042;SDS011;4556;49.150;8.808;2022-08-24T06:45:43;6.63;;;1.70;;
9042;SDS011;4556;49.150;8.808;2022-08-24T06:48:12;12.93;;;2.17;;
9042;SDS011;4556;49.150;8.808;2022-08-24T06:50:39;7.67;;;2.07;;
9042;SDS011;4556;49.150;8.808;2022-08-24T06:53:06;9.17;;;1.87;;
9042;SDS011;4556;49.150;8.808;2022-08-24T06:55:33;10.17;;;2.00;;
9042;SDS011;4556;49.150;8.808;2022-08-24T06:58:04;16.20;;;2.40;;
9042;SDS011;4556;49.150;8.808;2022-08-24T07:00:31;12.57;;;2.37;;
9042;SDS011;4556;49.150;8.808;2022-08-24T07:02:58;13.63;;;2.63;;
9042;SDS011;4556;49.150;8.808;2022-08-24T07:05:27;10.97;;;2.30;;
9042;SDS011;4556;49.150;8.808;2022-08-24T07:07:54;14.90;;;2.20;;
9042;SDS011;4556;49.150;8.808;2022-08-24T07:10:23;14.97;;;2.70;;
9042;SDS011;4556;49.150;8.808;2022-08-24T07:12:50;12.50;;;2.00;;
9042;SDS011;4556;49.150;8.808;2022-08-24T07:15:17;20.00;;;2.50;;
9042;SDS011;4556;49.150;8.808;2022-08-24T07:17:44;13.00;;;2.30;;
9042;SDS011;4556;49.150;8.808;2022-08-24T07:20:11;15.97;;;2.10;;
9042;SDS011;4556;49.150;8.808;2022-08-24T07:22:40;14.57;;;2.40;;
9042;SDS011;4556;49.150;8.808;2022-08-24T07:25:09;10.97;;;2.90;;
9042;SDS011;4556;49.150;8.808;2022-08-24T07:27:37;13.57;;;2.87;;
9042;SDS011;4556;49.150;8.808;2022-08-24T07:30:05;15.17;;;2.03;;
9042;SDS011;4556;49.150;8.808;2022-08-24T07:32:33;12.60;;;2.00;;
9042;SDS011;4556;49.150;8.808;2022-08-24T07:35:00;14.83;;;1.83;;
9042;SDS011;4556;49.150;8.808;2022-08-24T07:37:28;11.50;;;1.77;;
9042;SDS011;4556;49.150;8.808;2022-08-24T07:39:59;9.73;;;2.00;;
9042;SDS011;4556;49.150;8.808;2022-08-24T07:42:26;16.87;;;2.70;;
9042;SDS011;4556;49.150;8.808;2022-08-24T07:44:53;10.43;;;1.90;;
9042;SDS011;4556;49.150;8.808;2022-08-24T07:47:20;12.77;;;2.17;;
9042;SDS011;4556;49.150;8.808;2022-08-24T07:49:47;7.03;;;2.10;;
9042;SDS011;4556;49.150;8.808;2022-08-24T07:52:15;2.97;;;1.73;;
9042;SDS011;4556;49.150;8.808;2022-08-24T07:54:42;6.97;;;1.83;;
9042;SDS011;4556;49.150;8.808;2022-08-24T07:57:11;7.90;;;1.50;;
9042;SDS011;4556;49.150;8.808;2022-08-24T07:59:39;2.83;;;1.87;;
9042;SDS011;4556;49.150;8.808;2022-08-24T08:02:06;8.13;;;1.97;;
9042;SDS011;4556;49.150;8.808;2022-08-24T08:04:35;4.93;;;1.90;;
9042;SDS011;4556;49.150;8.808;2022-08-24T08:07:06;6.03;;;1.47;;
9042;SDS011;4556;49.150;8.808;2022-08-24T08:09:35;5.40;;;1.50;;
9042;SDS011;4556;49.150;8.808;2022-08-24T08:12:05;4.73;;;1.60;;
9042;SDS011;4556;49.150;8.808;2022-08-24T08:14:34;4.53;;;1.87;;
9042;SDS011;4556;49.150;8.808;2022-08-24T08:17:02;9.83;;;1.70;;
9042;SDS011;4556;49.150;8.808;2022-08-24T08:19:30;4.13;;;1.50;;
9042;SDS011;4556;49.150;8.808;2022-08-24T08:21:58;4.87;;;1.70;;
9042;SDS011;4556;49.150;8.808;2022-08-24T08:24:42;4.83;;;1.70;;
9042;SDS011;4556;49.150;8.808;2022-08-24T08:27:10;5.07;;;1.63;;
9042;SDS011;4556;49.150;8.808;2022-08-24T08:29:42;3.93;;;1.57;;
9042;SDS011;4556;49.150;8.808;2022-08-24T08:32:10;10.60;;;1.90;;
9042;SDS011;4556;49.150;8.808;2022-08-24T08:34:44;8.50;;;1.80;;
9042;SDS011;4556;49.150;8.808;2022-08-24T08:37:12;9.53;;;1.97;;
9042;SDS011;4556;49.150;8.808;2022-08-24T08:39:39;4.93;;;1.73;;
9042;SDS011;4556;49.150;8.808;2022-08-24T08:42:10;2.80;;;1.43;;
9042;SDS011;4556;49.150;8.808;2022-08-24T08:45:21;5.77;;;1.67;;
9042;SDS011;4556;49.150;8.808;2022-08-24T08:51:08;3.67;;;1.40;;
9042;SDS011;4556;49.150;8.808;2022-08-24T08:56:54;4.53;;;1.53;;
9042;SDS011;4556;49.150;8.808;2022-08-24T09:02:59;7.60;;;1.40;;
9042;SDS011;4556;49.150;8.808;2022-08-24T09:08:42;4.30;;;1.50;;
9042;SDS011;4556;49.150;8.808;2022-08-24T09:11:24;3.53;;;1.50;;
9042;SDS011;4556;49.150;8.808;2022-08-24T09:14:02;4.35;;;1.40;;
9042;SDS011;4556;49.150;8.808;2022-08-24T09:16:57;6.23;;;1.50;;
9042;SDS011;4556;49.150;8.808;2022-08-24T09:19:41;7.13;;;1.55;;
9042;SDS011;4556;49.150;8.808;2022-08-24T09:22:15;6.30;;;1.67;;
9042;SDS011;4556;49.150;8.808;2022-08-24T09:25:02;2.80;;;1.30;;
9042;SDS011;4556;49.150;8.808;2022-08-24T09:28:04;5.30;;;1.50;;
9042;SDS011;4556;49.150;8.808;2022-08-24T09:30:55;4.03;;;1.20;;
9042;SDS011;4556;49.150;8.808;2022-08-24T09:33:31;2.40;;;1.20;;
9042;SDS011;4556;49.150;8.808;2022-08-24T09:36:06;3.17;;;1.65;;
9042;SDS011;4556;49.150;8.808;2022-08-24T09:38:46;3.00;;;1.27;;
9042;SDS011;4556;49.150;8.808;2022-08-24T09:44:42;3.90;;;1.50;;
9042;SDS011;4556;49.150;8.808;2022-08-24T09:47:57;4.70;;;1.30;;
9042;SDS011;4556;49.150;8.808;2022-08-24T09:59:54;3.40;;;1.33;;
9042;SDS011;4556;49.150;8.808;2022-08-24T10:05:33;3.60;;;1.27;;
9042;SDS011;4556;49.150;8.808;2022-08-24T10:08:25;2.92;;;1.30;;
9042;SDS011;4556;49.150;8.808;2022-08-24T10:11:03;5.43;;;1.45;;
9042;SDS011;4556;49.150;8.808;2022-08-24T10:13:39;4.20;;;1.20;;
9042;SDS011;4556;49.150;8.808;2022-08-24T10:16:17;2.60;;;1.40;;
9042;SDS011;4556;49.150;8.808;2022-08-24T10:18:56;2.20;;;1.30;;
9042;SDS011;4556;49.150;8.808;2022-08-24T10:21:38;2.22;;;1.33;;
9042;SDS011;4556;49.150;8.808;2022-08-24T10:24:17;6.20;;;1.15;;
9042;SDS011;4556;49.150;8.808;2022-08-24T10:27:03;3.97;;;1.10;;
9042;SDS011;4556;49.150;8.808;2022-08-24T10:29:41;4.43;;;1.38;;
9042;SDS011;4556;49.150;8.808;2022-08-24T10:32:30;3.65;;;1.10;;
9042;SDS011;4556;49.150;8.808;2022-08-24T10:35:11;2.33;;;1.33;;
9042;SDS011;4556;49.150;8.808;2022-08-24T10:37:48;3.67;;;1.30;;
9042;SDS011;4556;49.150;8.808;2022-08-24T10:40:51;5.93;;;1.30;;
9042;SDS011;4556;49.150;8.808;2022-08-24T10:43:36;2.08;;;1.20;;
9042;SDS011;4556;49.150;8.808;2022-08-24T10:46:33;3.33;;;1.40;;
9042;SDS011;4556;49.150;8.808;2022-08-24T10:49:19;3.00;;;1.20;;
9042;SDS011;4556;49.150;8.808;2022-08-24T10:55:31;2.55;;;1.60;;
9042;SDS011;4556;49.150;8.808;2022-08-24T10:58:22;2.70;;;1.35;;
9042;SDS011;4556;49.150;8.808;2022-08-24T11:01:18;2.42;;;1.45;;
9042;SDS011;4556;49.150;8.808;2022-08-24T11:03:50;1.50;;;1.20;;
9042;SDS011;4556;49.150;8.808;2022-08-24T11:06:20;2.65;;;1.40;;
9042;SDS011;4556;49.150;8.808;2022-08-24T11:08:53;4.10;;;1.60;;
9042;SDS011;4556;49.150;8.808;2022-08-24T11:11:25;3.10;;;1.10;;
9042;SDS011;4556;49.150;8.808;2022-08-24T11:13:58;2.95;;;1.60;;
9042;SDS011;4556;49.150;8.808;2022-08-24T11:16:30;3.10;;;1.30;;
9042;SDS011;4556;49.150;8.808;2022-08-24T11:19:00;2.00;;;1.33;;
9042;SDS011;4556;49.150;8.808;2022-08-24T11:21:34;2.45;;;1.65;;
9042;SDS011;4556;49.150;8.808;2022-08-24T11:24:05;1.75;;;1.40;;
9042;SDS011;4556;49.150;8.808;2022-08-24T11:26:44;2.17;;;1.33;;
9042;SDS011;4556;49.150;8.808;2022-08-24T11:29:23;2.00;;;1.40;;
9042;SDS011;4556;49.150;8.808;2022-08-24T11:31:55;3.00;;;1.33;;
9042;SDS011;4556;49.150;8.808;2022-08-24T11:34:31;2.10;;;1.20;;
9042;SDS011;4556;49.150;8.808;2022-08-24T11:37:01;5.43;;;1.40;;
9042;SDS011;4556;49.150;8.808;2022-08-24T11:39:32;2.58;;;1.30;;
9042;SDS011;4556;49.150;8.808;2022-08-24T11:42:05;3.58;;;1.48;;
9042;SDS011;4556;49.150;8.808;2022-08-24T11:44:47;3.13;;;1.58;;
9042;SDS011;4556;49.150;8.808;2022-08-24T11:50:15;2.95;;;1.48;;
9042;SDS011;4556;49.150;8.808;2022-08-24T11:52:54;2.28;;;1.35;;
9042;SDS011;4556;49.150;8.808;2022-08-24T11:55:35;4.65;;;1.23;;
9042;SDS011;4556;49.150;8.808;2022-08-24T11:58:10;2.13;;;1.23;;
9042;SDS011;4556;49.150;8.808;2022-08-24T12:00:49;2.90;;;1.40;;
9042;SDS011;4556;49.150;8.808;2022-08-24T12:03:31;3.00;;;1.35;;
9042;SDS011;4556;49.150;8.808;2022-08-24T12:06:09;2.58;;;1.52;;
9042;SDS011;4556;49.150;8.808;2022-08-24T12:08:47;2.22;;;1.38;;
9042;SDS011;4556;49.150;8.808;2022-08-24T12:11:19;4.63;;;1.40;;
9042;SDS011;4556;49.150;8.808;2022-08-24T12:13:57;2.35;;;1.30;;
9042;SDS011;4556;49.150;8.808;2022-08-24T12:16:31;9.70;;;1.58;;
9042;SDS011;4556;49.150;8.808;2022-08-24T12:19:02;2.58;;;1.40;;
9042;SDS011;4556;49.150;8.808;2022-08-24T12:21:37;2.63;;;1.30;;
9042;SDS011;4556;49.150;8.808;2022-08-24T12:24:07;2.58;;;1.30;;
9042;SDS011;4556;49.150;8.808;2022-08-24T12:26:39;5.95;;;1.45;;
9042;SDS011;4556;49.150;8.808;2022-08-24T12:29:15;5.25;;;1.40;;
9042;SDS011;4556;49.150;8.808;2022-08-24T12:31:49;2.53;;;1.52;;
9042;SDS011;4556;49.150;8.808;2022-08-24T12:34:21;3.63;;;1.50;;
9042;SDS011;4556;49.150;8.808;2022-08-24T12:36:57;2.13;;;1.20;;
9042;SDS011;4556;49.150;8.808;2022-08-24T12:39:30;4.28;;;1.50;;
9042;SDS011;4556;49.150;8.808;2022-08-24T12:42:05;1.20;;;1.10;;
9042;SDS011;4556;49.150;8.808;2022-08-24T12:44:41;3.65;;;1.30;;
9042;SDS011;4556;49.150;8.808;2022-08-24T12:47:18;3.28;;;1.50;;
9042;SDS011;4556;49.150;8.808;2022-08-24T12:49:52;4.38;;;1.30;;
9042;SDS011;4556;49.150;8.808;2022-08-24T12:52:34;1.58;;;1.25;;
9042;SDS011;4556;49.150;8.808;2022-08-24T12:55:26;2.58;;;1.25;;
9042;SDS011;4556;49.150;8.808;2022-08-24T12:58:25;3.67;;;1.27;;
9042;SDS011;4556;49.150;8.808;2022-08-24T13:01:09;3.00;;;1.50;;
9042;SDS011;4556;49.150;8.808;2022-08-24T13:03:42;3.90;;;1.25;;
9042;SDS011;4556;49.150;8.808;2022-08-24T13:06:16;3.58;;;1.15;;
9042;SDS011;4556;49.150;8.808;2022-08-24T13:08:48;2.65;;;1.40;;
9042;SDS011;4556;49.150;8.808;2022-08-24T13:11:26;4.18;;;1.58;;
9042;SDS011;4556;49.150;8.808;2022-08-24T13:14:04;2.30;;;1.42;;
9042;SDS011;4556;49.150;8.808;2022-08-24T13:16:43;6.90;;;1.40;;
9042;SDS011;4556;49.150;8.808;2022-08-24T13:19:15;2.90;;;1.33;;
9042;SDS011;4556;49.150;8.808;2022-08-24T13:21:56;4.45;;;1.45;;
9042;SDS011;4556;49.150;8.808;2022-08-24T13:33:30;7.03;;;1.55;;
9042;SDS011;4556;49.150;8.808;2022-08-24T13:36:05;1.98;;;1.20;;
9042;SDS011;4556;49.150;8.808;2022-08-24T13:39:03;1.25;;;0.90;;
9042;SDS011;4556;49.150;8.808;2022-08-24T13:41:41;1.20;;;1.10;;
9042;SDS011;4556;49.150;8.808;2022-08-24T13:44:19;3.88;;;1.30;;
9042;SDS011;4556;49.150;8.808;2022-08-24T13:46:53;1.52;;;1.20;;
9042;SDS011;4556;49.150;8.808;2022-08-24T13:49:31;3.45;;;1.40;;
9042;SDS011;4556;49.150;8.808;2022-08-24T13:52:18;4.63;;;1.38;;
9042;SDS011;4556;49.150;8.808;2022-08-24T13:55:03;1.30;;;1.05;;
9042;SDS011;4556;49.150;8.808;2022-08-24T13:58:02;1.02;;;0.90;;
9042;SDS011;4556;49.150;8.808;2022-08-24T14:00:38;2.85;;;1.17;;
9042;SDS011;4556;49.150;8.808;2022-08-24T14:03:18;1.75;;;1.20;;
9042;SDS011;4556;49.150;8.808;2022-08-24T14:06:15;1.80;;;1.17;;
9042;SDS011;4556;49.150;8.808;2022-08-24T14:08:54;3.40;;;1.42;;
9042;SDS011;4556;49.150;8.808;2022-08-24T14:11:35;1.73;;;1.13;;
9042;SDS011;4556;49.150;8.808;2022-08-24T14:14:14;2.58;;;1.40;;
9042;SDS011;4556;49.150;8.808;2022-08-24T14:16:52;4.63;;;1.27;;
9042;SDS011;4556;49.150;8.808;2022-08-24T14:19:48;4.95;;;1.40;;
9042;SDS011;4556;49.150;8.808;2022-08-24T14:22:26;4.82;;;1.40;;
9042;SDS011;4556;49.150;8.808;2022-08-24T14:25:03;1.23;;;1.10;;
9042;SDS011;4556;49.150;8.808;2022-08-24T14:27:43;4.88;;;1.15;;
9042;SDS011;4556;49.150;8.808;2022-08-24T14:33:17;1.42;;;1.20;;
9042;SDS011;4556;49.150;8.808;2022-08-24T14:35:58;3.60;;;1.13;;
9042;SDS011;4556;49.150;8.808;2022-08-24T14:38:45;2.00;;;1.17;;
9042;SDS011;4556;49.150;8.808;2022-08-24T14:41:34;1.50;;;1.27;;
9042;SDS011;4556;49.150;8.808;2022-08-24T14:47:25;6.53;;;1.27;;
9042;SDS011;4556;49.150;8.808;2022-08-24T14:50:05;1.70;;;1.10;;
9042;SDS011;4556;49.150;8.808;2022-08-24T14:52:40;1.60;;;1.10;;
9042;SDS011;4556;49.150;8.808;2022-08-24T14:55:24;2.47;;;1.23;;
9042;SDS011;4556;49.150;8.808;2022-08-24T14:58:02;3.92;;;2.72;;
9042;SDS011;4556;49.150;8.808;2022-08-24T15:00:47;2.35;;;1.35;;
9042;SDS011;4556;49.150;8.808;2022-08-24T15:03:27;4.57;;;1.30;;
9042;SDS011;4556;49.150;8.808;2022-08-24T15:06:19;1.33;;;1.10;;
9042;SDS011;4556;49.150;8.808;2022-08-24T15:08:50;2.00;;;1.08;;
9042;SDS011;4556;49.150;8.808;2022-08-24T15:11:20;2.83;;;1.23;;
9042;SDS011;4556;49.150;8.808;2022-08-24T15:13:54;2.75;;;1.30;;
9042;SDS011;4556;49.150;8.808;2022-08-24T15:16:26;3.53;;;1.10;;
9042;SDS011;4556;49.150;8.808;2022-08-24T15:19:15;1.88;;;1.10;;
9042;SDS011;4556;49.150;8.808;2022-08-24T15:21:48;2.30;;;1.00;;
9042;SDS011;4556;49.150;8.808;2022-08-24T15:24:25;2.78;;;1.00;;
9042;SDS011;4556;49.150;8.808;2022-08-24T15:27:10;1.50;;;1.10;;
9042;SDS011;4556;49.150;8.808;2022-08-24T15:29:51;3.13;;;1.10;;
9042;SDS011;4556;49.150;8.808;2022-08-24T15:32:22;3.22;;;1.30;;
9042;SDS011;4556;49.150;8.808;2022-08-24T15:34:52;1.98;;;1.10;;
9042;SDS011;4556;49.150;8.808;2022-08-24T15:37:27;1.73;;;1.40;;
9042;SDS011;4556;49.150;8.808;2022-08-24T15:39:56;2.70;;;1.02;;
9042;SDS011;4556;49.150;8.808;2022-08-24T15:42:24;1.30;;;1.00;;
9042;SDS011;4556;49.150;8.808;2022-08-24T15:44:54;2.97;;;1.30;;
9042;SDS011;4556;49.150;8.808;2022-08-24T15:47:27;3.22;;;1.23;;
9042;SDS011;4556;49.150;8.808;2022-08-24T15:49:57;2.15;;;0.95;;
9042;SDS011;4556;49.150;8.808;2022-08-24T15:52:38;3.55;;;1.10;;
9042;SDS011;4556;49.150;8.808;2022-08-24T15:55:12;3.97;;;1.00;;
9042;SDS011;4556;49.150;8.808;2022-08-24T15:57:52;2.33;;;1.20;;
9042;SDS011;4556;49.150;8.808;2022-08-24T16:00:23;3.70;;;1.30;;
9042;SDS011;4556;49.150;8.808;2022-08-24T16:03:22;2.40;;;1.00;;
9042;SDS011;4556;49.150;8.808;2022-08-24T16:05:52;2.20;;;1.15;;
9042;SDS011;4556;49.150;8.808;2022-08-24T16:08:22;2.08;;;1.15;;
9042;SDS011;4556;49.150;8.808;2022-08-24T16:10:50;2.17;;;1.00;;
9042;SDS011;4556;49.150;8.808;2022-08-24T16:13:23;3.25;;;1.00;;
9042;SDS011;4556;49.150;8.808;2022-08-24T16:15:57;1.55;;;1.05;;
9042;SDS011;4556;49.150;8.808;2022-08-24T16:18:39;4.13;;;1.30;;
9042;SDS011;4556;49.150;8.808;2022-08-24T16:21:12;2.47;;;1.00;;
9042;SDS011;4556;49.150;8.808;2022-08-24T16:23:43;2.50;;;1.20;;
9042;SDS011;4556;49.150;8.808;2022-08-24T16:28:57;2.33;;;1.00;;
9042;SDS011;4556;49.150;8.808;2022-08-24T16:31:42;1.98;;;1.40;;
9042;SDS011;4556;49.150;8.808;2022-08-24T16:34:16;2.15;;;1.15;;
9042;SDS011;4556;49.150;8.808;2022-08-24T16:36:46;3.88;;;1.40;;
9042;SDS011;4556;49.150;8.808;2022-08-24T16:39:16;1.48;;;1.20;;
9042;SDS011;4556;49.150;8.808;2022-08-24T16:41:43;2.25;;;1.08;;
9042;SDS011;4556;49.150;8.808;2022-08-24T16:44:11;1.60;;;0.90;;